Back to Top

Language: 

My Weather Underground Personal Weather Station Historical Data with Graphs...

Delerius Weather Station Historical Data
Daily Summary for August 12, 2017 Units:  Metric    English   Both
« Previous Day
Next Day »
Daily Weekly Monthly Yearly Custom
  High: Low: Average:
Temperature: 21 °C 12.5 °C 16.4 °C
Dew Point: 14.8 °C 9.7 °C 12.1 °C
Humidity: 92 % 56 % 77 %
Wind Speed: 24.1 km/h 0 km/h 14 km/h
Wind Gust: 43.5 km/h - -
Wind:- - WNW
Pressure: 1018.2 hPa 1010.4 hPa -
Precipitation: 0 mm    
Historical Graphs
 
 
Tabular Data for August 12, 2017
Time Temperature Dew Point Pressure Wind Wind Speed Wind Gust Humidity Rainfall Rate (Hourly) solar Conditions
00:04 16.1 °C 14.4 °C 1011.4 hPa West 4.8 km/h 9.7 km/h 90 % 0 mm 0 W/m2
00:09 16 °C 14.6 °C 1011.4 hPa West 6.4 km/h 14.5 km/h 91 % 0 mm 0 W/m2
00:14 15.9 °C 14.4 °C 1011.4 hPa West 8 km/h 16.1 km/h 91 % 0 mm 0 W/m2
00:19 15.9 °C 14.4 °C 1011.4 hPa West 8 km/h 16.1 km/h 91 % 0 mm 0 W/m2
00:24 15.9 °C 14.4 °C 1011.1 hPa West 8 km/h 16.1 km/h 91 % 0 mm 0 W/m2
00:29 15.9 °C 14.6 °C 1011.1 hPa West 6.4 km/h 16.1 km/h 92 % 0 mm 0 W/m2
00:34 15.8 °C 14.5 °C 1011.1 hPa West 8 km/h 17.7 km/h 92 % 0 mm 0 W/m2
00:39 15.8 °C 14.5 °C 1011.1 hPa WNW 9.7 km/h 17.7 km/h 92 % 0 mm 0 W/m2
00:44 15.8 °C 14.5 °C 1011.1 hPa West 8 km/h 14.5 km/h 92 % 0 mm 0 W/m2
00:49 15.9 °C 14.6 °C 1010.7 hPa WSW 6.4 km/h 14.5 km/h 92 % 0 mm 0 W/m2
00:54 15.9 °C 14.6 °C 1011.1 hPa West 9.7 km/h 25.7 km/h 92 % 0 mm 0 W/m2
00:59 16.1 °C 14.8 °C 1010.7 hPa West 14.5 km/h 25.7 km/h 92 % 0 mm 0 W/m2
01:04 16.1 °C 14.8 °C 1010.7 hPa West 14.5 km/h 24.1 km/h 92 % 0 mm 0 W/m2
01:09 16.1 °C 14.8 °C 1010.7 hPa West 16.1 km/h 24.1 km/h 92 % 0 mm 0 W/m2
01:14 16.1 °C 14.6 °C 1010.7 hPa West 14.5 km/h 29 km/h 91 % 0 mm 0 W/m2
01:19 16.1 °C 14.6 °C 1010.7 hPa West 14.5 km/h 29 km/h 91 % 0 mm 0 W/m2
01:24 16.1 °C 14.6 °C 1010.7 hPa West 14.5 km/h 25.7 km/h 91 % 0 mm 0 W/m2
01:29 16.1 °C 14.6 °C 1010.7 hPa West 14.5 km/h 25.7 km/h 91 % 0 mm 0 W/m2
01:34 16 °C 14.6 °C 1010.7 hPa West 14.5 km/h 25.7 km/h 91 % 0 mm 0 W/m2
01:39 16 °C 14.3 °C 1010.7 hPa West 12.9 km/h 29 km/h 90 % 0 mm 0 W/m2
01:44 16 °C 14.3 °C 1010.7 hPa West 14.5 km/h 30.6 km/h 90 % 0 mm 0 W/m2
01:49 15.9 °C 14.3 °C 1010.7 hPa West 16.1 km/h 30.6 km/h 90 % 0 mm 0 W/m2
01:54 15.9 °C 14.3 °C 1010.7 hPa West 14.5 km/h 24.1 km/h 90 % 0 mm 0 W/m2
01:59 16 °C 14.3 °C 1010.7 hPa West 14.5 km/h 24.1 km/h 90 % 0 mm 0 W/m2
02:04 16 °C 14.3 °C 1010.7 hPa West 16.1 km/h 25.7 km/h 90 % 0 mm 0 W/m2
02:09 16 °C 14.3 °C 1010.7 hPa West 17.7 km/h 25.7 km/h 90 % 0 mm 0 W/m2
02:14 16 °C 14.2 °C 1010.7 hPa West 17.7 km/h 29 km/h 89 % 0 mm 0 W/m2
02:19 16 °C 14.2 °C 1010.7 hPa West 16.1 km/h 29 km/h 89 % 0 mm 0 W/m2
02:24 16 °C 14.2 °C 1010.7 hPa West 16.1 km/h 29 km/h 89 % 0 mm 0 W/m2
02:29 15.9 °C 13.9 °C 1010.7 hPa West 16.1 km/h 29 km/h 88 % 0 mm 0 W/m2
02:34 15.8 °C 13.8 °C 1010.7 hPa West 14.5 km/h 24.1 km/h 88 % 0 mm 0 W/m2
02:39 15.8 °C 13.8 °C 1010.7 hPa West 14.5 km/h 24.1 km/h 88 % 0 mm 0 W/m2
02:44 15.7 °C 13.7 °C 1010.7 hPa West 14.5 km/h 24.1 km/h 88 % 0 mm 0 W/m2
02:49 15.7 °C 13.7 °C 1010.7 hPa West 16.1 km/h 32.2 km/h 88 % 0 mm 0 W/m2
02:54 15.7 °C 13.7 °C 1010.7 hPa West 16.1 km/h 32.2 km/h 88 % 0 mm 0 W/m2
02:59 15.6 °C 13.6 °C 1010.7 hPa West 14.5 km/h 25.7 km/h 88 % 0 mm 0 W/m2
03:04 15.5 °C 13.5 °C 1010.7 hPa West 14.5 km/h 25.7 km/h 88 % 0 mm 0 W/m2
03:09 15.4 °C 13.4 °C 1010.7 hPa West 12.9 km/h 25.7 km/h 88 % 0 mm 0 W/m2
03:14 15.4 °C 13.4 °C 1010.7 hPa West 12.9 km/h 20.9 km/h 88 % 0 mm 0 W/m2
03:19 15.3 °C 13.5 °C 1010.7 hPa West 12.9 km/h 22.5 km/h 89 % 0 mm 0 W/m2
03:24 15.2 °C 13.2 °C 1010.7 hPa West 12.9 km/h 22.5 km/h 88 % 0 mm 0 W/m2
03:29 15.2 °C 13.2 °C 1010.7 hPa West 14.5 km/h 24.1 km/h 88 % 0 mm 0 W/m2
03:34 15.1 °C 13.1 °C 1010.7 hPa WNW 14.5 km/h 24.1 km/h 88 % 0 mm 0 W/m2
03:39 15.1 °C 13.1 °C 1010.7 hPa West 14.5 km/h 22.5 km/h 88 % 0 mm 0 W/m2
03:44 15.1 °C 13.3 °C 1010.7 hPa West 14.5 km/h 25.7 km/h 89 % 0 mm 0 W/m2
03:49 15.2 °C 13.4 °C 1010.4 hPa West 14.5 km/h 25.7 km/h 89 % 0 mm 0 W/m2
03:54 15.2 °C 13.4 °C 1010.7 hPa West 14.5 km/h 22.5 km/h 89 % 0 mm 0 W/m2
03:59 15.2 °C 13.4 °C 1010.7 hPa West 12.9 km/h 22.5 km/h 89 % 0 mm 0 W/m2
04:04 15.2 °C 13.4 °C 1010.4 hPa West 12.9 km/h 22.5 km/h 89 % 0 mm 0 W/m2
04:10 15.1 °C 13.3 °C 1010.4 hPa West 12.9 km/h 20.9 km/h 89 % 0 mm 0 W/m2
04:15 15.1 °C 13.3 °C 1010.7 hPa West 11.3 km/h 19.3 km/h 89 % 0 mm 0 W/m2
04:20 15 °C 13.2 °C 1010.7 hPa WNW 12.9 km/h 19.3 km/h 89 % 0 mm 0 W/m2
04:25 14.9 °C 13.1 °C 1010.7 hPa WNW 12.9 km/h 19.3 km/h 89 % 0 mm 0 W/m2
04:30 14.8 °C 13.2 °C 1010.7 hPa WNW 11.3 km/h 17.7 km/h 90 % 0 mm 0 W/m2
04:35 14.7 °C 13.1 °C 1010.7 hPa WNW 9.7 km/h 17.7 km/h 90 % 0 mm 0 W/m2
04:40 14.6 °C 13 °C 1010.7 hPa WNW 9.7 km/h 17.7 km/h 90 % 0 mm 0 W/m2
04:45 14.5 °C 12.7 °C 1010.7 hPa WNW 9.7 km/h 19.3 km/h 89 % 0 mm 0 W/m2
04:50 14.3 °C 12.3 °C 1010.7 hPa WNW 9.7 km/h 19.3 km/h 88 % 0 mm 0 W/m2
04:55 14.2 °C 12.2 °C 1010.7 hPa WNW 9.7 km/h 16.1 km/h 88 % 0 mm 0 W/m2
05:00 14.1 °C 11.9 °C 1010.7 hPa WNW 9.7 km/h 16.1 km/h 87 % 0 mm 0 W/m2
05:05 14.1 °C 11.9 °C 1010.7 hPa WNW 8 km/h 16.1 km/h 87 % 0 mm 0 W/m2
05:10 13.9 °C 11.8 °C 1010.7 hPa NW 4.8 km/h 14.5 km/h 87 % 0 mm 0 W/m2
05:15 13.9 °C 11.8 °C 1010.7 hPa NW 1.6 km/h 9.7 km/h 87 % 0 mm 0 W/m2
05:20 13.8 °C 11.8 °C 1010.7 hPa WSW 3.2 km/h 12.9 km/h 88 % 0 mm 0 W/m2
05:25 13.8 °C 11.8 °C 1010.7 hPa WSW 4.8 km/h 12.9 km/h 88 % 0 mm 0 W/m2
05:30 13.7 °C 11.7 °C 1011.1 hPa West 1.6 km/h 9.7 km/h 88 % 0 mm 0 W/m2
05:35 13.6 °C 11.7 °C 1011.1 hPa West 3.2 km/h 9.7 km/h 88 % 0 mm 0 W/m2
05:40 13.4 °C 11.4 °C 1011.1 hPa West 3.2 km/h 9.7 km/h 88 % 0 mm 5 W/m2
05:45 13.3 °C 11.3 °C 1011.1 hPa WNW 1.6 km/h 6.4 km/h 88 % 0 mm 7 W/m2
05:50 13.2 °C 11.3 °C 1011.1 hPa Calm   6.4 km/h 88 % 0 mm 9 W/m2
05:55 13.1 °C 11.3 °C 1011.1 hPa West 3.2 km/h 12.9 km/h 89 % 0 mm 11 W/m2
06:00 13 °C 11.2 °C 1011.1 hPa West 4.8 km/h 12.9 km/h 89 % 0 mm 12 W/m2
06:05 12.9 °C 11.1 °C 1011.1 hPa WNW 3.2 km/h 9.7 km/h 89 % 0 mm 14 W/m2
06:10 12.9 °C 11.1 °C 1011.1 hPa WNW 1.6 km/h 12.9 km/h 89 % 0 mm 14 W/m2
06:15 12.9 °C 11.1 °C 1011.1 hPa WNW 1.6 km/h 12.9 km/h 89 % 0 mm 18 W/m2
06:20 12.8 °C 11.1 °C 1011.4 hPa Calm   1.6 km/h 89 % 0 mm 26 W/m2
06:25 12.8 °C 11.1 °C 1011.4 hPa Calm     89 % 0 mm 23 W/m2
06:30 12.7 °C 10.9 °C 1011.4 hPa Calm     89 % 0 mm 21 W/m2
06:31 12.7 °C 10.9 °C 1011.4 hPa Calm     89 % 0 mm 33 W/m2
06:36 12.8 °C 11.2 °C 1011.4 hPa Calm     90 % 0 mm 83 W/m2
06:41 12.9 °C 11.3 °C 1011.4 hPa WSW 1.6 km/h 14.5 km/h 90 % 0 mm 95 W/m2
06:46 13.2 °C 11.6 °C 1011.4 hPa West 4.8 km/h 17.7 km/h 90 % 0 mm 107 W/m2
06:51 13.4 °C 11.6 °C 1011.4 hPa West 9.7 km/h 19.3 km/h 89 % 0 mm 97 W/m2
06:56 13.7 °C 11.7 °C 1011.4 hPa WNW 11.3 km/h 20.9 km/h 88 % 0 mm 105 W/m2
07:01 13.7 °C 11.6 °C 1011.4 hPa West 12.9 km/h 20.9 km/h 87 % 0 mm 39 W/m2
07:06 13.8 °C 11.5 °C 1011.4 hPa West 11.3 km/h 19.3 km/h 86 % 0 mm 70 W/m2
07:11 13.9 °C 11.6 °C 1011.4 hPa West 8 km/h 16.1 km/h 86 % 0 mm 81 W/m2
07:16 13.9 °C 11.6 °C 1011.7 hPa West 8 km/h 16.1 km/h 86 % 0 mm 202 W/m2
07:21 14.1 °C 11.8 °C 1011.7 hPa West 9.7 km/h 16.1 km/h 86 % 0 mm 190 W/m2
07:26 14.3 °C 12 °C 1011.7 hPa West 9.7 km/h 16.1 km/h 86 % 0 mm 104 W/m2
07:31 14.4 °C 12.1 °C 1011.7 hPa West 8 km/h 17.7 km/h 86 % 0 mm 70 W/m2
07:36 14.4 °C 12.1 °C 1011.7 hPa West 6.4 km/h 17.7 km/h 86 % 0 mm 60 W/m2
07:41 14.4 °C 12.1 °C 1011.7 hPa West 6.4 km/h 12.9 km/h 86 % 0 mm 65 W/m2
07:46 14.4 °C 12.1 °C 1011.7 hPa West 6.4 km/h 12.9 km/h 86 % 0 mm 79 W/m2
07:51 14.4 °C 12.1 °C 1012.1 hPa West 3.2 km/h 11.3 km/h 86 % 0 mm 95 W/m2
07:56 14.4 °C 12.3 °C 1012.1 hPa Calm   6.4 km/h 87 % 0 mm 90 W/m2
08:01 14.4 °C 12.1 °C 1012.1 hPa West 3.2 km/h 19.3 km/h 86 % 0 mm 84 W/m2
08:06 14.5 °C 12.2 °C 1012.1 hPa West 6.4 km/h 19.3 km/h 86 % 0 mm 188 W/m2
08:11 14.6 °C 12.3 °C 1012.1 hPa West 4.8 km/h 12.9 km/h 86 % 0 mm 93 W/m2
08:16 14.7 °C 12.2 °C 1012.1 hPa West 6.4 km/h 24.1 km/h 85 % 0 mm 160 W/m2
08:26 14.9 °C 12.1 °C 1012.1 hPa West 14.5 km/h 29 km/h 83 % 0 mm 79 W/m2
08:31 15 °C 12.1 °C 1012.1 hPa WNW 16.1 km/h 29 km/h 83 % 0 mm 56 W/m2
08:36 15 °C 12.1 °C 1012.1 hPa WNW 16.1 km/h 24.1 km/h 83 % 0 mm 130 W/m2
08:41 15.2 °C 12.5 °C 1012.1 hPa West 14.5 km/h 30.6 km/h 84 % 0 mm 355 W/m2
08:46 15.4 °C 12.5 °C 1012.1 hPa West 14.5 km/h 30.6 km/h 83 % 0 mm 160 W/m2
08:51 15.5 °C 12.3 °C 1012.1 hPa West 17.7 km/h 32.2 km/h 81 % 0 mm 102 W/m2
08:56 15.3 °C 12.1 °C 1012.1 hPa West 19.3 km/h 32.2 km/h 81 % 0 mm 91 W/m2
09:01 15.2 °C 12.2 °C 1012.1 hPa WSW 17.7 km/h 32.2 km/h 82 % 0 mm 77 W/m2
09:06 15.1 °C 12.1 °C 1012.4 hPa WSW 16.1 km/h 25.7 km/h 82 % 0 mm 98 W/m2
09:11 15 °C 11.9 °C 1012.4 hPa West 14.5 km/h 25.7 km/h 82 % 0 mm 121 W/m2
09:16 15.1 °C 12.1 °C 1012.4 hPa West 14.5 km/h 25.7 km/h 82 % 0 mm 70 W/m2
09:21 15.3 °C 12.2 °C 1012.4 hPa West 14.5 km/h 25.7 km/h 82 % 0 mm 178 W/m2
09:26 15.6 °C 12.3 °C 1012.8 hPa West 12.9 km/h 24.1 km/h 81 % 0 mm 160 W/m2
09:31 15.7 °C 12.1 °C 1012.4 hPa West 12.9 km/h 25.7 km/h 79 % 0 mm 134 W/m2
09:36 15.8 °C 12.2 °C 1012.8 hPa West 14.5 km/h 25.7 km/h 79 % 0 mm 125 W/m2
09:41 15.8 °C 11.9 °C 1012.8 hPa WNW 11.3 km/h 22.5 km/h 78 % 0 mm 86 W/m2
09:46 15.8 °C 11.9 °C 1012.8 hPa WNW 11.3 km/h 22.5 km/h 78 % 0 mm 86 W/m2
09:51 15.8 °C 11.9 °C 1012.8 hPa WNW 14.5 km/h 25.7 km/h 78 % 0 mm 132 W/m2
09:56 15.7 °C 12.1 °C 1012.8 hPa West 17.7 km/h 30.6 km/h 79 % 0 mm 165 W/m2
10:01 15.6 °C 12.2 °C 1012.8 hPa West 17.7 km/h 30.6 km/h 80 % 0 mm 144 W/m2
10:06 15.5 °C 12.1 °C 1012.8 hPa West 17.7 km/h 30.6 km/h 80 % 0 mm 239 W/m2
10:11 15.5 °C 12.3 °C 1012.8 hPa West 17.7 km/h 30.6 km/h 81 % 0 mm 234 W/m2
10:16 15.5 °C 12.3 °C 1012.8 hPa West 16.1 km/h 25.7 km/h 81 % 0 mm 146 W/m2
10:21 15.5 °C 12.3 °C 1012.8 hPa West 12.9 km/h 24.1 km/h 81 % 0 mm 230 W/m2
10:26 15.7 °C 12.4 °C 1012.8 hPa West 12.9 km/h 24.1 km/h 81 % 0 mm 297 W/m2
10:31 15.9 °C 12.4 °C 1012.8 hPa West 14.5 km/h 22.5 km/h 80 % 0 mm 316 W/m2
10:37 16.4 °C 12.7 °C 1012.8 hPa West 14.5 km/h 24.1 km/h 79 % 0 mm 406 W/m2
10:42 16.7 °C 12.7 °C 1012.8 hPa West 14.5 km/h 25.7 km/h 77 % 0 mm 332 W/m2
10:47 16.9 °C 12.7 °C 1012.8 hPa West 16.1 km/h 25.7 km/h 76 % 0 mm 346 W/m2
10:52 17 °C 12.3 °C 1012.8 hPa West 17.7 km/h 30.6 km/h 74 % 0 mm 360 W/m2
10:57 17.1 °C 12.4 °C 1012.8 hPa West 19.3 km/h 32.2 km/h 74 % 0 mm 497 W/m2
11:02 17.3 °C 12.6 °C 1012.8 hPa West 19.3 km/h 32.2 km/h 74 % 0 mm 401 W/m2
11:07 17.4 °C 12.7 °C 1012.8 hPa West 17.7 km/h 32.2 km/h 74 % 0 mm 374 W/m2
11:12 17.6 °C 12.9 °C 1012.8 hPa WNW 17.7 km/h 32.2 km/h 74 % 0 mm 376 W/m2
11:17 17.7 °C 12.6 °C 1012.8 hPa WNW 17.7 km/h 32.2 km/h 72 % 0 mm 306 W/m2
11:22 17.8 °C 12.7 °C 1013.1 hPa WNW 17.7 km/h 32.2 km/h 72 % 0 mm 230 W/m2
11:27 17.7 °C 12.8 °C 1013.1 hPa West 17.7 km/h 30.6 km/h 73 % 0 mm 350 W/m2
11:32 17.4 °C 12.5 °C 1013.1 hPa West 19.3 km/h 33.8 km/h 73 % 0 mm 468 W/m2
11:37 17.6 °C 12.9 °C 1013.1 hPa West 20.9 km/h 33.8 km/h 74 % 0 mm 1120 W/m2
11:42 17.9 °C 13.2 °C 1013.1 hPa West 17.7 km/h 32.2 km/h 74 % 0 mm 499 W/m2
11:47 18.1 °C 13.2 °C 1013.1 hPa West 14.5 km/h 24.1 km/h 73 % 0 mm 306 W/m2
11:52 18.3 °C 13.2 °C 1013.1 hPa West 16.1 km/h 30.6 km/h 72 % 0 mm 1053 W/m2
11:57 18.6 °C 13.2 °C 1013.1 hPa WNW 17.7 km/h 30.6 km/h 71 % 0 mm 652 W/m2
11:58 18.7 °C 13.3 °C 1013.1 hPa WNW 17.7 km/h 30.6 km/h 71 % 0 mm 439 W/m2
12:03 18.6 °C 13 °C 1013.1 hPa West 19.3 km/h 33.8 km/h 70 % 0 mm 819 W/m2
12:08 18.7 °C 12.9 °C 1013.1 hPa West 22.5 km/h 38.6 km/h 69 % 0 mm 830 W/m2
12:13 18.6 °C 12.8 °C 1013.1 hPa West 24.1 km/h 41.8 km/h 69 % 0 mm 274 W/m2
12:18 18.7 °C 12.9 °C 1013.1 hPa West 22.5 km/h 41.8 km/h 69 % 0 mm 1197 W/m2
12:23 19.1 °C 13.7 °C 1013.1 hPa West 19.3 km/h 33.8 km/h 71 % 0 mm 422 W/m2
12:28 19.3 °C 13.2 °C 1013.1 hPa West 16.1 km/h 32.2 km/h 68 % 0 mm 364 W/m2
12:33 19.3 °C 13 °C 1013.1 hPa WNW 17.7 km/h 35.4 km/h 67 % 0 mm 457 W/m2
12:38 19.2 °C 13.4 °C 1013.1 hPa West 19.3 km/h 35.4 km/h 69 % 0 mm 582 W/m2
12:43 19.3 °C 13.4 °C 1013.1 hPa West 17.7 km/h 29 km/h 69 % 0 mm 782 W/m2
12:48 19.4 °C 13.3 °C 1013.1 hPa West 19.3 km/h 29 km/h 68 % 0 mm 1136 W/m2
12:53 19.7 °C 13.4 °C 1013.1 hPa West 19.3 km/h 35.4 km/h 67 % 0 mm 325 W/m2
12:58 19.6 °C 13.3 °C 1013.1 hPa West 20.9 km/h 37 km/h 67 % 0 mm 255 W/m2
13:03 19.3 °C 13.7 °C 1013.4 hPa West 20.9 km/h 37 km/h 70 % 0 mm 483 W/m2
13:08 19 °C 13.2 °C 1013.4 hPa West 20.9 km/h 37 km/h 69 % 0 mm 225 W/m2
13:13 19 °C 13.6 °C 1013.4 hPa West 19.3 km/h 37 km/h 71 % 0 mm 1143 W/m2
13:18 19.2 °C 13.2 °C 1013.4 hPa WSW 20.9 km/h 38.6 km/h 68 % 0 mm 327 W/m2
13:23 19.1 °C 13.1 °C 1013.4 hPa West 20.9 km/h 38.6 km/h 68 % 0 mm 246 W/m2
13:28 19 °C 13.2 °C 1013.4 hPa WNW 19.3 km/h 35.4 km/h 69 % 0 mm 239 W/m2
13:33 18.8 °C 13 °C 1013.4 hPa WNW 20.9 km/h 37 km/h 69 % 0 mm 269 W/m2
13:38 18.6 °C 13 °C 1013.4 hPa WNW 22.5 km/h 38.6 km/h 70 % 0 mm 353 W/m2
13:43 18.5 °C 13.2 °C 1013.4 hPa West 22.5 km/h 38.6 km/h 71 % 0 mm 821 W/m2
13:48 18.8 °C 13.2 °C 1013.4 hPa West 24.1 km/h 40.2 km/h 70 % 0 mm 932 W/m2
13:53 19.2 °C 13.6 °C 1013.4 hPa West 22.5 km/h 40.2 km/h 70 % 0 mm 940 W/m2
13:58 19.4 °C 13.3 °C 1013.4 hPa West 20.9 km/h 33.8 km/h 68 % 0 mm 264 W/m2
14:04 19.3 °C 13 °C 1013.4 hPa West 20.9 km/h 35.4 km/h 67 % 0 mm 274 W/m2
14:08 19.2 °C 13.2 °C 1013.4 hPa WNW 22.5 km/h 35.4 km/h 68 % 0 mm 373 W/m2
14:10 19.2 °C 13.2 °C 1013.4 hPa West 22.5 km/h 37 km/h 68 % 0 mm 348 W/m2
14:15 19.2 °C 13.4 °C 1013.4 hPa West 22.5 km/h 40.2 km/h 69 % 0 mm 471 W/m2
14:20 19.5 °C 13.4 °C 1013.4 hPa West 22.5 km/h 40.2 km/h 68 % 0 mm 373 W/m2
14:25 19.6 °C 13.1 °C 1013.4 hPa WNW 22.5 km/h 37 km/h 66 % 0 mm 367 W/m2
14:30 19.6 °C 13.1 °C 1013.4 hPa WNW 20.9 km/h 37 km/h 66 % 0 mm 295 W/m2
14:35 19.5 °C 13 °C 1013.4 hPa WNW 19.3 km/h 37 km/h 66 % 0 mm 299 W/m2
14:40 19.6 °C 12.8 °C 1013.8 hPa WNW 20.9 km/h 38.6 km/h 65 % 0 mm 392 W/m2
14:45 19.8 °C 13.1 °C 1013.4 hPa West 20.9 km/h 38.6 km/h 65 % 0 mm 167 W/m2
14:51 19.7 °C 13.2 °C 1013.8 hPa WNW 19.3 km/h 35.4 km/h 66 % 0 mm 107 W/m2
14:56 19.2 °C 13.2 °C 1013.8 hPa WNW 19.3 km/h 37 km/h 68 % 0 mm 237 W/m2
15:01 19 °C 13.4 °C 1013.8 hPa WNW 16.1 km/h 37 km/h 70 % 0 mm 283 W/m2
15:06 19 °C 13.2 °C 1013.8 hPa WNW 12.9 km/h 20.9 km/h 69 % 0 mm 403 W/m2
15:11 19.1 °C 12.8 °C 1013.8 hPa WNW 16.1 km/h 35.4 km/h 67 % 0 mm 411 W/m2
15:16 19.2 °C 13.2 °C 1013.8 hPa West 19.3 km/h 35.4 km/h 68 % 0 mm 967 W/m2
15:21 19.6 °C 13.3 °C 1013.8 hPa West 17.7 km/h 30.6 km/h 67 % 0 mm 967 W/m2
15:26 19.7 °C 13.4 °C 1013.8 hPa West 19.3 km/h 35.4 km/h 67 % 0 mm 415 W/m2
15:31 19.9 °C 13.3 °C 1013.8 hPa WNW 20.9 km/h 35.4 km/h 66 % 0 mm 475 W/m2
15:36 20 °C 13.2 °C 1013.8 hPa WNW 20.9 km/h 33.8 km/h 65 % 0 mm 278 W/m2
15:41 19.9 °C 13.3 °C 1013.8 hPa WNW 20.9 km/h 33.8 km/h 66 % 0 mm 162 W/m2
15:46 19.6 °C 13.1 °C 1014.1 hPa WNW 19.3 km/h 33.8 km/h 66 % 0 mm 128 W/m2
15:51 19.2 °C 13.2 °C 1014.1 hPa WNW 17.7 km/h 33.8 km/h 68 % 0 mm 181 W/m2
15:56 19 °C 13.2 °C 1014.1 hPa NW 16.1 km/h 33.8 km/h 69 % 0 mm 272 W/m2
16:01 19.2 °C 13.2 °C 1014.1 hPa NW 14.5 km/h 30.6 km/h 68 % 0 mm 853 W/m2
16:06 19.6 °C 13.1 °C 1014.1 hPa WNW 16.1 km/h 30.6 km/h 66 % 0 mm 865 W/m2
16:11 20 °C 12.7 °C 1014.1 hPa WNW 17.7 km/h 35.4 km/h 63 % 0 mm 302 W/m2
16:16 20.1 °C 12.1 °C 1014.1 hPa WNW 20.9 km/h 40.2 km/h 60 % 0 mm 302 W/m2
16:21 20.2 °C 12.2 °C 1014.1 hPa WNW 20.9 km/h 40.2 km/h 60 % 0 mm 668 W/m2
16:26 20.3 °C 12.6 °C 1014.1 hPa WNW 20.9 km/h 43.5 km/h 61 % 0 mm 642 W/m2
16:31 20.3 °C 12.6 °C 1014.1 hPa WNW 22.5 km/h 43.5 km/h 61 % 0 mm 348 W/m2
16:36 20.2 °C 12.4 °C 1014.1 hPa WNW 20.9 km/h 35.4 km/h 61 % 0 mm 561 W/m2
16:41 20.2 °C 12.7 °C 1014.1 hPa WNW 19.3 km/h 33.8 km/h 62 % 0 mm 691 W/m2
16:46 20.6 °C 12.8 °C 1014.1 hPa WNW 16.1 km/h 30.6 km/h 61 % 0 mm 621 W/m2
16:51 20.8 °C 11.9 °C 1014.4 hPa WNW 17.7 km/h 37 km/h 57 % 0 mm 624 W/m2
16:56 20.9 °C 12.1 °C 1014.4 hPa WNW 19.3 km/h 37 km/h 57 % 0 mm 621 W/m2
17:01 21 °C 12.2 °C 1014.4 hPa WNW 17.7 km/h 37 km/h 57 % 0 mm 613 W/m2
17:06 20.9 °C 12.1 °C 1014.4 hPa WNW 17.7 km/h 37 km/h 57 % 0 mm 608 W/m2
17:11 21 °C 12.2 °C 1014.4 hPa WNW 19.3 km/h 33.8 km/h 57 % 0 mm 570 W/m2
17:16 20.8 °C 11.9 °C 1014.4 hPa WNW 19.3 km/h 37 km/h 57 % 0 mm 570 W/m2
17:21 20.7 °C 11.9 °C 1014.8 hPa WNW 20.9 km/h 37 km/h 57 % 0 mm 548 W/m2
17:26 20.6 °C 12.1 °C 1014.8 hPa WNW 20.9 km/h 33.8 km/h 58 % 0 mm 534 W/m2
17:31 20.6 °C 12.1 °C 1014.8 hPa West 19.3 km/h 33.8 km/h 58 % 0 mm 547 W/m2
17:36 20.6 °C 12.1 °C 1014.8 hPa West 17.7 km/h 33.8 km/h 58 % 0 mm 485 W/m2
17:41 20.5 °C 11.4 °C 1014.8 hPa WNW 17.7 km/h 32.2 km/h 56 % 0 mm 436 W/m2
17:46 20.5 °C 11.7 °C 1015.1 hPa WNW 17.7 km/h 32.2 km/h 57 % 0 mm 436 W/m2
17:51 20.5 °C 11.7 °C 1015.1 hPa WNW 16.1 km/h 30.6 km/h 57 % 0 mm 432 W/m2
17:56 20.6 °C 11.8 °C 1015.1 hPa WNW 14.5 km/h 29 km/h 57 % 0 mm 429 W/m2
18:01 20.5 °C 11.4 °C 1015.1 hPa WNW 16.1 km/h 32.2 km/h 56 % 0 mm 357 W/m2
18:02 20.4 °C 11.3 °C 1015.1 hPa WNW 16.1 km/h 32.2 km/h 56 % 0 mm 357 W/m2
18:07 20.3 °C 11.2 °C 1015.1 hPa West 17.7 km/h 32.2 km/h 56 % 0 mm 329 W/m2
18:12 20.2 °C 11.1 °C 1015.1 hPa WNW 16.1 km/h 30.6 km/h 56 % 0 mm 313 W/m2
18:17 20 °C 11.2 °C 1015.1 hPa WNW 16.1 km/h 37 km/h 57 % 0 mm 290 W/m2
18:22 19.7 °C 10.9 °C 1015.1 hPa West 17.7 km/h 37 km/h 57 % 0 mm 283 W/m2
18:27 19.5 °C 11 °C 1015.1 hPa West 19.3 km/h 35.4 km/h 58 % 0 mm 269 W/m2
18:32 19.4 °C 11.2 °C 1015.1 hPa WNW 17.7 km/h 35.4 km/h 59 % 0 mm 255 W/m2
18:37 19.4 °C 10.9 °C 1015.5 hPa WNW 16.1 km/h 30.6 km/h 58 % 0 mm 241 W/m2
18:42 19.3 °C 11.1 °C 1015.5 hPa WNW 17.7 km/h 32.2 km/h 59 % 0 mm 225 W/m2
18:47 19.1 °C 10.9 °C 1015.5 hPa WNW 19.3 km/h 33.8 km/h 59 % 0 mm 214 W/m2
18:52 18.9 °C 10.4 °C 1015.5 hPa WNW 20.9 km/h 33.8 km/h 58 % 0 mm 204 W/m2
18:57 18.7 °C 10.3 °C 1015.5 hPa WNW 22.5 km/h 38.6 km/h 58 % 0 mm 199 W/m2
19:02 18.6 °C 10.2 °C 1015.8 hPa WNW 19.3 km/h 38.6 km/h 58 % 0 mm 178 W/m2
19:07 18.4 °C 10 °C 1015.8 hPa WNW 19.3 km/h 38.6 km/h 58 % 0 mm 158 W/m2
19:12 18.3 °C 10.2 °C 1015.8 hPa WNW 20.9 km/h 38.6 km/h 59 % 0 mm 146 W/m2
19:17 18.1 °C 9.9 °C 1015.8 hPa WNW 20.9 km/h 37 km/h 59 % 0 mm 135 W/m2
19:22 17.9 °C 10 °C 1015.8 hPa WNW 20.9 km/h 40.2 km/h 60 % 0 mm 123 W/m2
19:27 17.8 °C 10.2 °C 1015.8 hPa WNW 20.9 km/h 40.2 km/h 61 % 0 mm 111 W/m2
19:32 17.7 °C 10.1 °C 1015.8 hPa WNW 17.7 km/h 32.2 km/h 61 % 0 mm 97 W/m2
19:37 17.5 °C 10.1 °C 1016.1 hPa WNW 16.1 km/h 30.6 km/h 62 % 0 mm 86 W/m2
19:42 17.4 °C 10.3 °C 1016.1 hPa WNW 14.5 km/h 30.6 km/h 63 % 0 mm 76 W/m2
19:47 17.2 °C 10.1 °C 1016.1 hPa WNW 14.5 km/h 29 km/h 63 % 0 mm 53 W/m2
19:52 17.1 °C 10.2 °C 1016.5 hPa WNW 16.1 km/h 29 km/h 64 % 0 mm 30 W/m2
19:57 16.8 °C 10.4 °C 1016.5 hPa NW 14.5 km/h 29 km/h 66 % 0 mm 39 W/m2
20:02 16.6 °C 10.2 °C 1016.5 hPa NW 14.5 km/h 29 km/h 66 % 0 mm 33 W/m2
20:07 16.3 °C 10.2 °C 1016.5 hPa NW 14.5 km/h 29 km/h 67 % 0 mm 25 W/m2
20:12 16.2 °C 10.3 °C 1016.5 hPa WNW 14.5 km/h 29 km/h 68 % 0 mm 16 W/m2
20:17 15.9 °C 10 °C 1016.5 hPa WNW 16.1 km/h 29 km/h 68 % 0 mm 14 W/m2
20:22 15.8 °C 10.1 °C 1016.8 hPa WNW 16.1 km/h 29 km/h 69 % 0 mm 11 W/m2
20:27 15.7 °C 10 °C 1016.8 hPa WNW 14.5 km/h 22.5 km/h 69 % 0 mm 9 W/m2
20:32 15.5 °C 9.8 °C 1016.8 hPa WNW 12.9 km/h 22.5 km/h 69 % 0 mm 7 W/m2
20:37 15.4 °C 9.9 °C 1016.8 hPa WNW 14.5 km/h 22.5 km/h 70 % 0 mm 5 W/m2
20:43 15.2 °C 9.8 °C 1016.8 hPa WNW 14.5 km/h 25.7 km/h 70 % 0 mm 5 W/m2
20:48 15.2 °C 10 °C 1017.2 hPa WNW 14.5 km/h 25.7 km/h 71 % 0 mm 0 W/m2
20:53 15.1 °C 9.9 °C 1017.2 hPa WNW 11.3 km/h 19.3 km/h 71 % 0 mm 0 W/m2
20:58 14.9 °C 9.9 °C 1017.2 hPa WNW 9.7 km/h 17.7 km/h 72 % 0 mm 0 W/m2
21:03 14.8 °C 9.8 °C 1017.2 hPa WNW 11.3 km/h 19.3 km/h 72 % 0 mm 0 W/m2
21:08 14.7 °C 9.9 °C 1017.2 hPa WNW 11.3 km/h 19.3 km/h 73 % 0 mm 0 W/m2
21:13 14.6 °C 9.8 °C 1017.5 hPa WNW 11.3 km/h 16.1 km/h 73 % 0 mm 0 W/m2
21:18 14.4 °C 9.8 °C 1017.5 hPa WNW 9.7 km/h 19.3 km/h 74 % 0 mm 0 W/m2
21:23 14.3 °C 9.7 °C 1017.5 hPa WNW 11.3 km/h 19.3 km/h 74 % 0 mm 0 W/m2
21:28 14.2 °C 9.8 °C 1017.5 hPa WNW 11.3 km/h 19.3 km/h 75 % 0 mm 0 W/m2
21:29 14.2 °C 9.8 °C 1017.5 hPa WNW 11.3 km/h 19.3 km/h 75 % 0 mm 0 W/m2
21:34 14.2 °C 9.8 °C 1017.5 hPa WNW 12.9 km/h 20.9 km/h 75 % 0 mm 0 W/m2
21:35 14.1 °C 9.7 °C 1017.5 hPa WNW 12.9 km/h 20.9 km/h 75 % 0 mm 0 W/m2
21:40 14.1 °C 9.7 °C 1017.5 hPa WNW 11.3 km/h 20.9 km/h 75 % 0 mm 0 W/m2
21:45 14 °C 9.8 °C 1017.5 hPa WNW 11.3 km/h 22.5 km/h 76 % 0 mm 0 W/m2
21:50 13.9 °C 9.7 °C 1017.8 hPa WNW 12.9 km/h 22.5 km/h 76 % 0 mm 0 W/m2
21:55 13.8 °C 9.8 °C 1017.8 hPa WNW 12.9 km/h 24.1 km/h 77 % 0 mm 0 W/m2
22:00 13.8 °C 9.8 °C 1017.5 hPa WNW 12.9 km/h 24.1 km/h 77 % 0 mm 0 W/m2
22:05 13.7 °C 9.9 °C 1017.5 hPa WNW 12.9 km/h 20.9 km/h 78 % 0 mm 0 W/m2
22:10 13.7 °C 9.9 °C 1017.8 hPa WNW 11.3 km/h 20.9 km/h 78 % 0 mm 0 W/m2
22:15 13.6 °C 9.8 °C 1017.8 hPa WNW 9.7 km/h 17.7 km/h 78 % 0 mm 0 W/m2
22:20 13.5 °C 9.9 °C 1017.8 hPa WNW 9.7 km/h 16.1 km/h 79 % 0 mm 0 W/m2
22:25 13.4 °C 9.8 °C 1017.8 hPa WNW 9.7 km/h 16.1 km/h 79 % 0 mm 0 W/m2
22:30 13.3 °C 9.7 °C 1017.8 hPa WNW 8 km/h 14.5 km/h 79 % 0 mm 0 W/m2
22:35 13.3 °C 9.9 °C 1017.8 hPa WNW 8 km/h 14.5 km/h 80 % 0 mm 0 W/m2
22:40 13.2 °C 9.8 °C 1017.8 hPa WNW 9.7 km/h 14.5 km/h 80 % 0 mm 0 W/m2
22:45 13.1 °C 9.7 °C 1017.8 hPa WNW 8 km/h 14.5 km/h 80 % 0 mm 0 W/m2
22:50 13.1 °C 9.9 °C 1017.8 hPa WNW 8 km/h 12.9 km/h 81 % 0 mm 0 W/m2
22:55 13 °C 9.8 °C 1017.8 hPa WNW 8 km/h 12.9 km/h 81 % 0 mm 0 W/m2
23:00 12.9 °C 9.7 °C 1017.8 hPa WNW 8 km/h 12.9 km/h 81 % 0 mm 0 W/m2
23:05 12.9 °C 9.7 °C 1017.8 hPa WNW 8 km/h 14.5 km/h 81 % 0 mm 0 W/m2
23:10 12.8 °C 9.8 °C 1017.8 hPa WNW 8 km/h 14.5 km/h 82 % 0 mm 0 W/m2
23:15 12.8 °C 9.8 °C 1017.8 hPa WNW 11.3 km/h 22.5 km/h 82 % 0 mm 0 W/m2
23:20 12.8 °C 10 °C 1018.2 hPa WNW 11.3 km/h 22.5 km/h 83 % 0 mm 0 W/m2
23:25 12.8 °C 10 °C 1018.2 hPa WNW 11.3 km/h 19.3 km/h 83 % 0 mm 0 W/m2
23:30 12.8 °C 10 °C 1018.2 hPa WNW 11.3 km/h 17.7 km/h 83 % 0 mm 0 W/m2
23:35 12.7 °C 9.9 °C 1018.2 hPa WNW 11.3 km/h 19.3 km/h 83 % 0 mm 0 W/m2
23:40 12.7 °C 9.9 °C 1018.2 hPa WNW 11.3 km/h 19.3 km/h 83 % 0 mm 0 W/m2
23:45 12.7 °C 9.9 °C 1018.2 hPa WNW 11.3 km/h 16.1 km/h 83 % 0 mm 0 W/m2
23:50 12.6 °C 9.9 °C 1018.2 hPa WNW 9.7 km/h 16.1 km/h 84 % 0 mm 0 W/m2
23:55 12.6 °C 9.9 °C 1018.2 hPa West 6.4 km/h 12.9 km/h 84 % 0 mm 0 W/m2
23:58 12.5 °C 9.9 °C 1018.2 hPa West 4.8 km/h 14.5 km/h 84 % 0 mm 0 W/m2
Delerius-Weather
Compliments of Weather Underground - 2.25 mb

Data updates at regular intervals.